sensor_id;sensor_type;location;lat;lon;timestamp;pressure;altitude;pressure_sealevel;temperature;humidity
63568;BME280;49715;42.386;20.434;2022-10-31T00:00:09;97978.31;;;9.49;67.37
63568;BME280;49715;42.386;20.434;2022-10-31T00:02:37;97973.00;;;9.39;67.53
63568;BME280;49715;42.386;20.434;2022-10-31T00:05:04;97978.28;;;9.39;67.25
63568;BME280;49715;42.386;20.434;2022-10-31T00:07:31;97975.63;;;9.39;67.57
63568;BME280;49715;42.386;20.434;2022-10-31T00:09:57;97979.25;;;9.38;67.44
63568;BME280;49715;42.386;20.434;2022-10-31T00:12:23;97976.16;;;9.33;67.51
63568;BME280;49715;42.386;20.434;2022-10-31T00:14:49;97971.88;;;9.32;67.45
63568;BME280;49715;42.386;20.434;2022-10-31T00:17:16;97971.16;;;9.30;67.49
63568;BME280;49715;42.386;20.434;2022-10-31T00:19:42;97978.06;;;9.31;67.71
63568;BME280;49715;42.386;20.434;2022-10-31T00:22:09;97977.53;;;9.27;67.64
63568;BME280;49715;42.386;20.434;2022-10-31T00:24:35;97975.00;;;9.26;67.58
63568;BME280;49715;42.386;20.434;2022-10-31T00:27:01;97980.41;;;9.24;67.70
63568;BME280;49715;42.386;20.434;2022-10-31T00:29:28;97971.53;;;9.25;67.55
63568;BME280;49715;42.386;20.434;2022-10-31T00:31:54;97964.31;;;9.18;67.43
63568;BME280;49715;42.386;20.434;2022-10-31T00:34:20;97975.28;;;9.23;67.61
63568;BME280;49715;42.386;20.434;2022-10-31T00:36:47;97976.22;;;9.22;67.62
63568;BME280;49715;42.386;20.434;2022-10-31T00:39:13;97986.03;;;9.20;67.73
63568;BME280;49715;42.386;20.434;2022-10-31T00:41:39;97982.81;;;9.16;67.88
63568;BME280;49715;42.386;20.434;2022-10-31T00:44:11;97988.22;;;9.15;67.64
63568;BME280;49715;42.386;20.434;2022-10-31T00:46:38;97980.84;;;9.09;67.50
63568;BME280;49715;42.386;20.434;2022-10-31T00:49:04;97983.47;;;9.09;67.82
63568;BME280;49715;42.386;20.434;2022-10-31T00:51:31;97979.81;;;9.00;67.82
63568;BME280;49715;42.386;20.434;2022-10-31T00:53:58;97982.69;;;8.97;69.10
63568;BME280;49715;42.386;20.434;2022-10-31T00:56:24;97980.06;;;8.97;67.87
63568;BME280;49715;42.386;20.434;2022-10-31T00:58:50;97973.38;;;8.93;67.92
63568;BME280;49715;42.386;20.434;2022-10-31T01:01:17;97975.06;;;8.94;68.05
63568;BME280;49715;42.386;20.434;2022-10-31T01:03:43;97974.25;;;8.93;67.93
63568;BME280;49715;42.386;20.434;2022-10-31T01:06:13;97972.81;;;8.89;67.89
63568;BME280;49715;42.386;20.434;2022-10-31T01:08:40;97973.66;;;8.90;67.89
63568;BME280;49715;42.386;20.434;2022-10-31T01:11:11;97973.78;;;8.88;68.01
63568;BME280;49715;42.386;20.434;2022-10-31T01:13:40;97971.25;;;8.87;68.05
63568;BME280;49715;42.386;20.434;2022-10-31T01:16:07;97978.81;;;8.80;68.95
63568;BME280;49715;42.386;20.434;2022-10-31T01:18:34;97973.81;;;8.77;68.40
63568;BME280;49715;42.386;20.434;2022-10-31T01:21:07;97974.19;;;8.72;68.01
63568;BME280;49715;42.386;20.434;2022-10-31T01:23:34;97978.75;;;8.70;68.14
63568;BME280;49715;42.386;20.434;2022-10-31T01:26:12;97979.81;;;8.68;68.31
63568;BME280;49715;42.386;20.434;2022-10-31T01:29:01;97983.69;;;8.64;68.23
63568;BME280;49715;42.386;20.434;2022-10-31T01:31:34;97980.31;;;8.62;68.22
63568;BME280;49715;42.386;20.434;2022-10-31T01:34:02;97985.44;;;8.63;68.41
63568;BME280;49715;42.386;20.434;2022-10-31T01:36:36;97983.69;;;8.64;68.46
63568;BME280;49715;42.386;20.434;2022-10-31T01:39:08;97980.31;;;8.62;68.55
63568;BME280;49715;42.386;20.434;2022-10-31T01:41:38;97979.50;;;8.61;68.58
63568;BME280;49715;42.386;20.434;2022-10-31T01:46:50;97985.81;;;8.59;68.57
63568;BME280;49715;42.386;20.434;2022-10-31T01:51:52;97978.56;;;8.51;68.68
63568;BME280;49715;42.386;20.434;2022-10-31T01:54:22;97976.66;;;8.53;68.80
63568;BME280;49715;42.386;20.434;2022-10-31T01:56:52;97975.72;;;8.54;68.87
63568;BME280;49715;42.386;20.434;2022-10-31T01:59:22;97978.44;;;8.52;68.60
63568;BME280;49715;42.386;20.434;2022-10-31T02:01:50;97966.63;;;8.47;68.63
63568;BME280;49715;42.386;20.434;2022-10-31T02:04:18;97977.00;;;8.48;68.73
63568;BME280;49715;42.386;20.434;2022-10-31T02:06:58;97977.84;;;8.49;68.71
63568;BME280;49715;42.386;20.434;2022-10-31T02:09:27;97968.94;;;8.40;68.68
63568;BME280;49715;42.386;20.434;2022-10-31T02:11:57;97975.25;;;8.38;68.75
63568;BME280;49715;42.386;20.434;2022-10-31T02:14:27;97983.13;;;8.38;69.07
63568;BME280;49715;42.386;20.434;2022-10-31T02:16:55;97976.31;;;8.35;68.71
63568;BME280;49715;42.386;20.434;2022-10-31T02:22:11;97981.56;;;8.35;68.60
63568;BME280;49715;42.386;20.434;2022-10-31T02:27:47;97976.69;;;8.31;68.86
63568;BME280;49715;42.386;20.434;2022-10-31T02:30:20;97987.06;;;8.32;68.93
63568;BME280;49715;42.386;20.434;2022-10-31T02:33:11;97980.97;;;8.32;68.73
63568;BME280;49715;42.386;20.434;2022-10-31T02:35:50;97990.66;;;8.31;68.70
63568;BME280;49715;42.386;20.434;2022-10-31T02:38:59;98001.53;;;8.26;68.80
63568;BME280;49715;42.386;20.434;2022-10-31T02:47:17;97988.31;;;8.06;68.75
63568;BME280;49715;42.386;20.434;2022-10-31T02:49:50;97996.66;;;8.11;68.85
63568;BME280;49715;42.386;20.434;2022-10-31T02:52:21;97995.09;;;8.08;68.81
63568;BME280;49715;42.386;20.434;2022-10-31T02:54:48;97980.91;;;7.99;68.86
63568;BME280;49715;42.386;20.434;2022-10-31T02:57:15;97998.56;;;7.97;70.13
63568;BME280;49715;42.386;20.434;2022-10-31T02:59:53;97992.63;;;7.95;69.21
63568;BME280;49715;42.386;20.434;2022-10-31T03:08:06;98003.00;;;7.97;68.88
63568;BME280;49715;42.386;20.434;2022-10-31T03:10:47;98004.78;;;7.96;68.88
63568;BME280;49715;42.386;20.434;2022-10-31T03:13:39;97999.16;;;7.90;69.15
63568;BME280;49715;42.386;20.434;2022-10-31T03:21:39;97997.38;;;7.90;68.99
63568;BME280;49715;42.386;20.434;2022-10-31T03:24:07;97999.28;;;7.88;69.10
63568;BME280;49715;42.386;20.434;2022-10-31T03:26:38;98015.72;;;7.90;69.18
63568;BME280;49715;42.386;20.434;2022-10-31T03:29:11;98009.09;;;7.86;69.05
63568;BME280;49715;42.386;20.434;2022-10-31T03:31:49;98008.47;;;7.83;68.96
63568;BME280;49715;42.386;20.434;2022-10-31T03:34:18;98006.34;;;7.77;69.25
63568;BME280;49715;42.386;20.434;2022-10-31T03:36:49;98010.00;;;7.74;69.33
63568;BME280;49715;42.386;20.434;2022-10-31T03:39:19;98008.13;;;7.76;69.50
63568;BME280;49715;42.386;20.434;2022-10-31T03:42:05;98014.44;;;7.73;69.43
63568;BME280;49715;42.386;20.434;2022-10-31T03:44:33;98012.03;;;7.70;69.33
63568;BME280;49715;42.386;20.434;2022-10-31T03:47:03;98008.56;;;7.70;69.36
63568;BME280;49715;42.386;20.434;2022-10-31T03:49:31;98010.38;;;7.69;69.13
63568;BME280;49715;42.386;20.434;2022-10-31T03:54:43;98020.88;;;7.69;69.41
63568;BME280;49715;42.386;20.434;2022-10-31T03:57:32;98016.44;;;7.70;69.09
63568;BME280;49715;42.386;20.434;2022-10-31T04:00:08;98019.19;;;7.68;69.29
63568;BME280;49715;42.386;20.434;2022-10-31T04:03:05;98019.44;;;7.65;69.47
63568;BME280;49715;42.386;20.434;2022-10-31T04:05:36;98023.84;;;7.65;69.32
63568;BME280;49715;42.386;20.434;2022-10-31T04:08:07;98021.22;;;7.65;69.33
63568;BME280;49715;42.386;20.434;2022-10-31T04:10:37;98028.13;;;7.66;69.39
63568;BME280;49715;42.386;20.434;2022-10-31T04:13:08;98020.38;;;7.64;69.32
63568;BME280;49715;42.386;20.434;2022-10-31T04:15:49;98016.44;;;7.59;69.46
63568;BME280;49715;42.386;20.434;2022-10-31T04:18:22;98020.75;;;7.60;69.35
63568;BME280;49715;42.386;20.434;2022-10-31T04:20:49;98021.91;;;7.56;69.37
63568;BME280;49715;42.386;20.434;2022-10-31T04:23:24;98027.06;;;7.57;69.38
63568;BME280;49715;42.386;20.434;2022-10-31T04:25:52;98025.16;;;7.59;69.30
63568;BME280;49715;42.386;20.434;2022-10-31T04:28:18;98019.28;;;7.56;69.28
63568;BME280;49715;42.386;20.434;2022-10-31T04:30:45;98015.97;;;7.54;69.46
63568;BME280;49715;42.386;20.434;2022-10-31T04:33:11;98018.59;;;7.54;69.56
63568;BME280;49715;42.386;20.434;2022-10-31T04:35:38;98023.97;;;7.52;69.62
63568;BME280;49715;42.386;20.434;2022-10-31T04:38:04;98010.94;;;7.51;69.41
63568;BME280;49715;42.386;20.434;2022-10-31T04:40:31;98010.84;;;7.52;69.50
63568;BME280;49715;42.386;20.434;2022-10-31T04:43:29;98027.28;;;7.54;69.48
63568;BME280;49715;42.386;20.434;2022-10-31T04:45:56;98022.16;;;7.53;69.37
63568;BME280;49715;42.386;20.434;2022-10-31T04:48:22;98022.41;;;7.49;69.40
63568;BME280;49715;42.386;20.434;2022-10-31T04:50:49;98014.66;;;7.48;69.27
63568;BME280;49715;42.386;20.434;2022-10-31T04:53:15;98026.81;;;7.49;69.26
63568;BME280;49715;42.386;20.434;2022-10-31T04:56:01;98027.28;;;7.43;69.47
63568;BME280;49715;42.386;20.434;2022-10-31T04:58:36;98042.19;;;7.42;69.51
63568;BME280;49715;42.386;20.434;2022-10-31T05:01:06;98036.53;;;7.36;69.48
63568;BME280;49715;42.386;20.434;2022-10-31T05:03:33;98041.22;;;7.32;69.70
63568;BME280;49715;42.386;20.434;2022-10-31T05:05:59;98042.25;;;7.30;69.70
63568;BME280;49715;42.386;20.434;2022-10-31T05:08:26;98035.69;;;7.24;69.89
63568;BME280;49715;42.386;20.434;2022-10-31T05:10:52;98045.97;;;7.27;69.74
63568;BME280;49715;42.386;20.434;2022-10-31T05:13:19;98040.72;;;7.27;69.92
63568;BME280;49715;42.386;20.434;2022-10-31T05:16:04;98049.28;;;7.29;69.86
63568;BME280;49715;42.386;20.434;2022-10-31T05:18:49;98049.28;;;7.29;69.82
63568;BME280;49715;42.386;20.434;2022-10-31T05:21:50;98052.53;;;7.33;69.94
63568;BME280;49715;42.386;20.434;2022-10-31T05:24:18;98051.44;;;7.35;69.82
63568;BME280;49715;42.386;20.434;2022-10-31T05:26:48;98057.31;;;7.39;69.79
63568;BME280;49715;42.386;20.434;2022-10-31T05:29:16;98055.66;;;7.38;69.58
63568;BME280;49715;42.386;20.434;2022-10-31T05:31:43;98058.00;;;7.41;69.60
63568;BME280;49715;42.386;20.434;2022-10-31T05:34:20;98053.59;;;7.41;69.65
63568;BME280;49715;42.386;20.434;2022-10-31T05:37:07;98063.16;;;7.42;69.72
63568;BME280;49715;42.386;20.434;2022-10-31T05:39:33;98069.72;;;7.48;69.76
63568;BME280;49715;42.386;20.434;2022-10-31T05:42:04;98076.53;;;7.51;69.65
63568;BME280;49715;42.386;20.434;2022-10-31T05:44:30;98082.84;;;7.48;69.65
63568;BME280;49715;42.386;20.434;2022-10-31T05:47:11;98086.31;;;7.48;69.78
63568;BME280;49715;42.386;20.434;2022-10-31T05:49:56;98087.84;;;7.51;69.85
63568;BME280;49715;42.386;20.434;2022-10-31T05:52:37;98085.47;;;7.48;69.66
63568;BME280;49715;42.386;20.434;2022-10-31T05:55:16;98092.16;;;7.52;69.78
63568;BME280;49715;42.386;20.434;2022-10-31T05:57:57;98089.28;;;7.55;69.92
63568;BME280;49715;42.386;20.434;2022-10-31T06:00:24;98091.09;;;7.55;70.07
63568;BME280;49715;42.386;20.434;2022-10-31T06:03:00;98099.91;;;7.54;70.56
63568;BME280;49715;42.386;20.434;2022-10-31T06:05:40;98087.50;;;7.56;70.12
63568;BME280;49715;42.386;20.434;2022-10-31T06:08:07;98100.19;;;7.62;69.65
63568;BME280;49715;42.386;20.434;2022-10-31T06:10:34;98094.44;;;7.57;69.75
63568;BME280;49715;42.386;20.434;2022-10-31T06:13:00;98104.59;;;7.61;69.86
63568;BME280;49715;42.386;20.434;2022-10-31T06:15:50;98112.00;;;7.67;70.09
63568;BME280;49715;42.386;20.434;2022-10-31T06:18:19;98111.75;;;7.70;69.96
63568;BME280;49715;42.386;20.434;2022-10-31T06:20:48;98098.75;;;7.69;69.89
63568;BME280;49715;42.386;20.434;2022-10-31T06:23:15;98113.94;;;7.77;70.04
63568;BME280;49715;42.386;20.434;2022-10-31T06:25:49;98117.75;;;7.84;69.91
63568;BME280;49715;42.386;20.434;2022-10-31T06:28:15;98120.16;;;7.87;69.81
63568;BME280;49715;42.386;20.434;2022-10-31T06:30:49;98122.41;;;7.91;69.97
63568;BME280;49715;42.386;20.434;2022-10-31T06:33:16;98130.66;;;7.98;69.94
63568;BME280;49715;42.386;20.434;2022-10-31T06:35:53;98132.94;;;8.03;70.10
63568;BME280;49715;42.386;20.434;2022-10-31T06:38:19;98133.41;;;8.08;69.98
63568;BME280;49715;42.386;20.434;2022-10-31T06:40:46;98131.88;;;8.16;69.88
63568;BME280;49715;42.386;20.434;2022-10-31T06:43:23;98125.66;;;8.17;69.64
63568;BME280;49715;42.386;20.434;2022-10-31T06:45:56;98139.25;;;8.34;69.56
63568;BME280;49715;42.386;20.434;2022-10-31T06:48:30;98147.19;;;8.45;69.83
63568;BME280;49715;42.386;20.434;2022-10-31T06:51:15;98145.06;;;8.50;69.90
63568;BME280;49715;42.386;20.434;2022-10-31T06:53:41;98146.09;;;8.59;69.55
63568;BME280;49715;42.386;20.434;2022-10-31T06:56:10;98138.31;;;8.68;69.47
63568;BME280;49715;42.386;20.434;2022-10-31T06:58:42;98140.00;;;8.81;69.35
63568;BME280;49715;42.386;20.434;2022-10-31T07:01:11;98151.06;;;8.95;69.25
63568;BME280;49715;42.386;20.434;2022-10-31T07:03:38;98147.84;;;9.03;69.26
63568;BME280;49715;42.386;20.434;2022-10-31T07:06:14;98148.66;;;9.15;69.30
63568;BME280;49715;42.386;20.434;2022-10-31T07:08:41;98145.00;;;9.27;69.01
63568;BME280;49715;42.386;20.434;2022-10-31T07:11:08;98147.34;;;9.41;69.02
63568;BME280;49715;42.386;20.434;2022-10-31T07:13:35;98149.81;;;9.54;68.94
63568;BME280;49715;42.386;20.434;2022-10-31T07:16:10;98147.94;;;9.66;68.83
63568;BME280;49715;42.386;20.434;2022-10-31T07:18:39;98148.63;;;9.79;68.56
63568;BME280;49715;42.386;20.434;2022-10-31T07:21:07;98152.03;;;9.91;68.55
63568;BME280;49715;42.386;20.434;2022-10-31T07:23:34;98151.97;;;10.02;68.57
63568;BME280;49715;42.386;20.434;2022-10-31T07:26:24;98141.09;;;10.16;68.32
63568;BME280;49715;42.386;20.434;2022-10-31T07:28:52;98151.31;;;10.30;68.13
63568;BME280;49715;42.386;20.434;2022-10-31T07:31:21;98141.09;;;10.37;68.23
63568;BME280;49715;42.386;20.434;2022-10-31T07:33:48;98147.13;;;10.58;68.01
63568;BME280;49715;42.386;20.434;2022-10-31T07:36:26;98145.94;;;10.72;68.01
63568;BME280;49715;42.386;20.434;2022-10-31T07:38:56;98141.50;;;10.82;67.44
63568;BME280;49715;42.386;20.434;2022-10-31T07:41:26;98150.59;;;10.99;67.71
63568;BME280;49715;42.386;20.434;2022-10-31T07:43:55;98145.47;;;11.07;67.57
63568;BME280;49715;42.386;20.434;2022-10-31T07:46:40;98141.59;;;11.21;67.41
63568;BME280;49715;42.386;20.434;2022-10-31T07:49:45;98128.28;;;11.32;67.31
63568;BME280;49715;42.386;20.434;2022-10-31T07:52:30;98112.47;;;11.32;67.10
63568;BME280;49715;42.386;20.434;2022-10-31T07:55:23;98136.47;;;11.58;66.75
63568;BME280;49715;42.386;20.434;2022-10-31T07:58:00;98137.03;;;11.72;66.87
63568;BME280;49715;42.386;20.434;2022-10-31T08:00:28;98129.09;;;11.81;66.87
63568;BME280;49715;42.386;20.434;2022-10-31T08:03:09;98128.41;;;11.89;66.47
63568;BME280;49715;42.386;20.434;2022-10-31T08:05:56;98127.28;;;12.01;66.49
63568;BME280;49715;42.386;20.434;2022-10-31T08:08:54;98133.81;;;12.07;66.49
63568;BME280;49715;42.386;20.434;2022-10-31T08:11:20;98123.22;;;12.17;66.47
63568;BME280;49715;42.386;20.434;2022-10-31T08:13:47;98123.75;;;12.30;66.20
63568;BME280;49715;42.386;20.434;2022-10-31T08:16:14;98127.47;;;12.37;66.56
63568;BME280;49715;42.386;20.434;2022-10-31T08:18:58;98133.78;;;12.54;66.13
63568;BME280;49715;42.386;20.434;2022-10-31T08:21:24;98124.03;;;12.64;65.78
63568;BME280;49715;42.386;20.434;2022-10-31T08:23:51;98125.47;;;12.76;65.91
63568;BME280;49715;42.386;20.434;2022-10-31T08:26:20;98118.03;;;12.89;65.70
63568;BME280;49715;42.386;20.434;2022-10-31T08:28:49;98115.84;;;13.03;65.59
63568;BME280;49715;42.386;20.434;2022-10-31T08:31:17;98120.50;;;13.19;65.45
63568;BME280;49715;42.386;20.434;2022-10-31T08:33:43;98107.06;;;13.30;65.31
63568;BME280;49715;42.386;20.434;2022-10-31T08:36:12;98115.69;;;13.50;65.39
63568;BME280;49715;42.386;20.434;2022-10-31T08:38:50;98112.31;;;13.65;65.04
63568;BME280;49715;42.386;20.434;2022-10-31T08:41:17;98105.13;;;13.76;64.61
63568;BME280;49715;42.386;20.434;2022-10-31T08:43:44;98115.16;;;13.90;64.69
63568;BME280;49715;42.386;20.434;2022-10-31T08:46:12;98114.09;;;14.01;64.53
63568;BME280;49715;42.386;20.434;2022-10-31T08:48:40;98109.81;;;14.08;64.39
63568;BME280;49715;42.386;20.434;2022-10-31T08:51:08;98114.38;;;14.15;64.61
63568;BME280;49715;42.386;20.434;2022-10-31T08:53:35;98112.09;;;14.29;64.32
63568;BME280;49715;42.386;20.434;2022-10-31T08:56:40;98114.16;;;14.43;64.08
63568;BME280;49715;42.386;20.434;2022-10-31T08:59:21;98115.59;;;14.55;64.04
63568;BME280;49715;42.386;20.434;2022-10-31T09:02:08;98110.34;;;14.72;64.03
63568;BME280;49715;42.386;20.434;2022-10-31T09:04:35;98111.75;;;14.84;63.62
63568;BME280;49715;42.386;20.434;2022-10-31T09:07:02;98100.94;;;14.85;63.54
63568;BME280;49715;42.386;20.434;2022-10-31T09:09:29;98098.53;;;15.08;63.25
63568;BME280;49715;42.386;20.434;2022-10-31T09:11:56;98106.53;;;15.25;63.02
63568;BME280;49715;42.386;20.434;2022-10-31T09:14:23;98095.56;;;15.36;62.81
63568;BME280;49715;42.386;20.434;2022-10-31T09:17:08;98100.25;;;15.50;62.70
63568;BME280;49715;42.386;20.434;2022-10-31T09:19:51;98090.44;;;15.59;62.54
63568;BME280;49715;42.386;20.434;2022-10-31T09:22:18;98094.31;;;15.73;62.22
63568;BME280;49715;42.386;20.434;2022-10-31T09:24:44;98091.28;;;15.84;62.09
63568;BME280;49715;42.386;20.434;2022-10-31T09:27:13;98087.13;;;15.98;61.76
63568;BME280;49715;42.386;20.434;2022-10-31T09:29:49;98079.63;;;16.09;61.50
63568;BME280;49715;42.386;20.434;2022-10-31T09:32:19;98079.75;;;16.24;61.35
63568;BME280;49715;42.386;20.434;2022-10-31T09:34:46;98084.22;;;16.40;60.94
63568;BME280;49715;42.386;20.434;2022-10-31T09:37:16;98083.34;;;16.47;60.87
63568;BME280;49715;42.386;20.434;2022-10-31T09:39:43;98080.44;;;16.65;60.50
63568;BME280;49715;42.386;20.434;2022-10-31T09:48:02;98066.53;;;17.17;59.52
63568;BME280;49715;42.386;20.434;2022-10-31T09:50:56;98071.41;;;17.37;58.79
63568;BME280;49715;42.386;20.434;2022-10-31T09:56:21;98068.00;;;17.66;58.37
63568;BME280;49715;42.386;20.434;2022-10-31T09:58:57;98060.44;;;17.78;57.98
63568;BME280;49715;42.386;20.434;2022-10-31T10:01:34;98059.47;;;17.93;57.50
63568;BME280;49715;42.386;20.434;2022-10-31T10:31:13;98030.13;;;19.68;49.90
63568;BME280;49715;42.386;20.434;2022-10-31T10:36:36;98028.22;;;19.90;51.04
63568;BME280;49715;42.386;20.434;2022-10-31T10:39:15;98028.69;;;20.00;50.84
63568;BME280;49715;42.386;20.434;2022-10-31T10:41:48;98029.59;;;20.14;51.06
63568;BME280;49715;42.386;20.434;2022-10-31T10:44:54;98031.56;;;20.26;51.20
63568;BME280;49715;42.386;20.434;2022-10-31T10:48:02;98013.50;;;20.42;50.27
63568;BME280;49715;42.386;20.434;2022-10-31T10:50:46;97983.97;;;20.28;50.82
63568;BME280;49715;42.386;20.434;2022-10-31T10:53:43;97984.91;;;20.49;50.29
63568;BME280;49715;42.386;20.434;2022-10-31T11:00:27;98005.06;;;20.93;49.29
63568;BME280;49715;42.386;20.434;2022-10-31T11:03:40;97988.97;;;20.93;49.86
63568;BME280;49715;42.386;20.434;2022-10-31T11:06:27;97973.53;;;21.01;49.62
63568;BME280;49715;42.386;20.434;2022-10-31T11:09:08;97969.84;;;21.09;48.92
63568;BME280;49715;42.386;20.434;2022-10-31T11:11:44;98010.53;;;21.46;48.95
63568;BME280;49715;42.386;20.434;2022-10-31T11:14:16;97970.50;;;21.51;48.76
63568;BME280;49715;42.386;20.434;2022-10-31T11:17:07;97987.22;;;21.73;48.19
63568;BME280;49715;42.386;20.434;2022-10-31T11:20:03;97970.88;;;21.88;46.77
63568;BME280;49715;42.386;20.434;2022-10-31T11:22:47;97961.97;;;22.07;47.75
63568;BME280;49715;42.386;20.434;2022-10-31T11:25:24;97968.97;;;22.21;46.66
63568;BME280;49715;42.386;20.434;2022-10-31T11:28:17;97966.81;;;22.43;45.59
63568;BME280;49715;42.386;20.434;2022-10-31T11:30:49;97958.13;;;22.48;46.67
63568;BME280;49715;42.386;20.434;2022-10-31T11:33:44;97937.81;;;22.58;45.82
63568;BME280;49715;42.386;20.434;2022-10-31T11:36:30;97933.59;;;22.76;45.51
63568;BME280;49715;42.386;20.434;2022-10-31T11:38:59;97957.16;;;23.12;46.04
63568;BME280;49715;42.386;20.434;2022-10-31T11:41:29;97952.28;;;23.27;45.55
63568;BME280;49715;42.386;20.434;2022-10-31T11:44:04;97922.94;;;23.26;45.10
63568;BME280;49715;42.386;20.434;2022-10-31T11:46:59;97906.38;;;23.29;43.95
63568;BME280;49715;42.386;20.434;2022-10-31T11:50:52;97915.56;;;23.64;42.75
63568;BME280;49715;42.386;20.434;2022-10-31T11:54:22;97921.94;;;23.88;44.68
63568;BME280;49715;42.386;20.434;2022-10-31T12:00:32;97933.88;;;24.36;42.53
63568;BME280;49715;42.386;20.434;2022-10-31T12:06:20;97932.78;;;24.55;41.53
63568;BME280;49715;42.386;20.434;2022-10-31T12:08:50;97919.81;;;24.64;43.08
63568;BME280;49715;42.386;20.434;2022-10-31T12:12:05;97912.31;;;24.66;41.27
63568;BME280;49715;42.386;20.434;2022-10-31T12:17:26;97917.31;;;24.92;42.64
63568;BME280;49715;42.386;20.434;2022-10-31T12:20:19;97916.06;;;24.95;41.18
63568;BME280;49715;42.386;20.434;2022-10-31T12:29:06;97908.63;;;25.21;40.21
63568;BME280;49715;42.386;20.434;2022-10-31T12:34:38;97900.31;;;25.34;39.57
63568;BME280;49715;42.386;20.434;2022-10-31T12:37:31;97901.25;;;25.39;41.04
63568;BME280;49715;42.386;20.434;2022-10-31T12:40:19;97890.94;;;25.48;40.97
63568;BME280;49715;42.386;20.434;2022-10-31T12:57:54;97867.75;;;25.99;40.15
63568;BME280;49715;42.386;20.434;2022-10-31T13:00:19;97884.88;;;26.16;40.33
63568;BME280;49715;42.386;20.434;2022-10-31T13:02:56;97883.31;;;26.20;39.44
63568;BME280;49715;42.386;20.434;2022-10-31T13:08:03;97885.41;;;26.30;39.41
63568;BME280;49715;42.386;20.434;2022-10-31T13:10:45;97880.25;;;26.29;38.53
63568;BME280;49715;42.386;20.434;2022-10-31T13:13:33;97887.84;;;26.43;38.59
63568;BME280;49715;42.386;20.434;2022-10-31T13:16:19;97871.88;;;26.42;38.11
63568;BME280;49715;42.386;20.434;2022-10-31T13:19:08;97888.38;;;26.57;38.58
63568;BME280;49715;42.386;20.434;2022-10-31T13:24:55;97862.19;;;26.58;37.80
63568;BME280;49715;42.386;20.434;2022-10-31T13:27:47;97884.66;;;26.75;37.61
63568;BME280;49715;42.386;20.434;2022-10-31T13:30:18;97875.50;;;26.76;38.59
63568;BME280;49715;42.386;20.434;2022-10-31T13:32:53;97882.97;;;26.86;37.78
63568;BME280;49715;42.386;20.434;2022-10-31T13:44:29;97873.88;;;26.92;38.64
63568;BME280;49715;42.386;20.434;2022-10-31T13:46:58;97879.88;;;26.94;38.34
63568;BME280;49715;42.386;20.434;2022-10-31T13:52:44;97869.88;;;26.94;36.53
63568;BME280;49715;42.386;20.434;2022-10-31T13:55:20;97877.88;;;27.06;37.64
63568;BME280;49715;42.386;20.434;2022-10-31T13:57:54;97873.91;;;27.09;37.83
63568;BME280;49715;42.386;20.434;2022-10-31T14:00:24;97873.28;;;27.07;37.61
63568;BME280;49715;42.386;20.434;2022-10-31T14:02:56;97885.19;;;27.06;37.53
63568;BME280;49715;42.386;20.434;2022-10-31T14:06:01;97868.78;;;26.95;36.37
63568;BME280;49715;42.386;20.434;2022-10-31T14:08:31;97870.03;;;27.05;37.92
63568;BME280;49715;42.386;20.434;2022-10-31T14:11:22;97857.63;;;26.92;36.95
63568;BME280;49715;42.386;20.434;2022-10-31T14:13:49;97873.22;;;27.02;37.50
63568;BME280;49715;42.386;20.434;2022-10-31T14:16:22;97877.81;;;27.01;37.52
63568;BME280;49715;42.386;20.434;2022-10-31T14:19:05;97869.53;;;26.91;36.74
63568;BME280;49715;42.386;20.434;2022-10-31T14:22:20;97869.19;;;26.87;36.85
63568;BME280;49715;42.386;20.434;2022-10-31T14:27:59;97829.81;;;26.46;37.76
63568;BME280;49715;42.386;20.434;2022-10-31T14:30:28;97861.09;;;26.59;37.98
63568;BME280;49715;42.386;20.434;2022-10-31T14:33:00;97844.16;;;26.47;38.09
63568;BME280;49715;42.386;20.434;2022-10-31T14:35:53;97837.16;;;26.22;37.87
63568;BME280;49715;42.386;20.434;2022-10-31T14:38:46;97868.81;;;26.38;38.57
63568;BME280;49715;42.386;20.434;2022-10-31T14:51:36;97858.06;;;25.28;39.49
63568;BME280;49715;42.386;20.434;2022-10-31T14:54:28;97855.25;;;25.11;39.90
63568;BME280;49715;42.386;20.434;2022-10-31T14:57:32;97860.56;;;24.76;39.61
63568;BME280;49715;42.386;20.434;2022-10-31T15:00:12;97864.25;;;24.63;40.01
63568;BME280;49715;42.386;20.434;2022-10-31T15:02:49;97866.66;;;24.41;40.85
63568;BME280;49715;42.386;20.434;2022-10-31T15:05:19;97875.03;;;24.14;41.15
63568;BME280;49715;42.386;20.434;2022-10-31T15:07:58;97859.81;;;23.90;40.91
63568;BME280;49715;42.386;20.434;2022-10-31T15:10:32;97848.50;;;23.63;40.99
63568;BME280;49715;42.386;20.434;2022-10-31T15:13:23;97839.13;;;23.29;41.28
63568;BME280;49715;42.386;20.434;2022-10-31T15:16:14;97862.94;;;23.25;41.39
63568;BME280;49715;42.386;20.434;2022-10-31T15:19:05;97821.16;;;22.73;41.94
63568;BME280;49715;42.386;20.434;2022-10-31T15:21:35;97864.94;;;22.80;42.14
63568;BME280;49715;42.386;20.434;2022-10-31T15:24:19;97843.91;;;22.45;42.72
63568;BME280;49715;42.386;20.434;2022-10-31T15:26:55;97850.41;;;22.24;42.82
63568;BME280;49715;42.386;20.434;2022-10-31T15:29:27;97877.06;;;22.19;42.91
63568;BME280;49715;42.386;20.434;2022-10-31T15:32:19;97874.06;;;21.89;43.33
63568;BME280;49715;42.386;20.434;2022-10-31T15:34:53;97861.56;;;21.56;43.28
63568;BME280;49715;42.386;20.434;2022-10-31T15:37:26;97880.78;;;21.53;43.65
63568;BME280;49715;42.386;20.434;2022-10-31T15:40:07;97872.75;;;21.20;43.83
63568;BME280;49715;42.386;20.434;2022-10-31T15:42:39;97866.34;;;21.08;43.94
63568;BME280;49715;42.386;20.434;2022-10-31T15:45:24;97879.97;;;21.00;44.20
63568;BME280;49715;42.386;20.434;2022-10-31T15:50:47;97883.00;;;20.57;44.90
63568;BME280;49715;42.386;20.434;2022-10-31T15:53:18;97884.59;;;20.45;45.02
63568;BME280;49715;42.386;20.434;2022-10-31T15:55:59;97885.38;;;20.25;45.19
63568;BME280;49715;42.386;20.434;2022-10-31T15:58:41;97890.66;;;20.12;45.29